UAL8185 PHNL-PGUM
Flight info
| Callsign | UAL8185 |
|---|---|
| Flight time | N/A |
| Altitude | 34000 |
| Route | KEOLA3 NONNI BRIUN A450 SYSTA/N0469F360 A450 JIMOS/N0469F380 A450 DEWSS |
| Aircraft | A339/H-SADE1E2E3GHIJ3J5M1P2RWXY/LB2D1 |
Departure
| Time | 2026-05-04 08:02 |
|---|---|
| Airport | Daniel K. Inouye International Airport (PHNL) |
Arrival
| Time | N/A |
|---|---|
| Airport | Antonio B. Won Pat International Airport (PGUM) |
| Time | Latitude | Longitude | Altitude | Speed | Heading |
|---|---|---|---|---|---|
| 2026-05-04 07:29 | 21.32869 | -157.91429 | 43 ft | 0 kts | 0° |
| 2026-05-04 07:49 | 21.32829 | -157.91429 | 43 ft | 2 kts | 0° |
| 2026-05-04 07:49 | 21.32814 | -157.91429 | 42 ft | 2 kts | 0° |
| 2026-05-04 07:49 | 21.32799 | -157.91429 | 42 ft | 1 kts | 0° |
| 2026-05-04 07:50 | 21.32789 | -157.91429 | 41 ft | 2 kts | 344° |
| 2026-05-04 07:50 | 21.32777 | -157.91420 | 41 ft | 2 kts | 302° |
| 2026-05-04 07:50 | 21.32772 | -157.91408 | 41 ft | 0 kts | 271° |
| 2026-05-04 07:50 | 21.32772 | -157.91402 | 41 ft | 0 kts | 269° |
| 2026-05-04 07:53 | 21.32772 | -157.91403 | 41 ft | 1 kts | 269° |
| 2026-05-04 07:54 | 21.32636 | -157.91844 | 34 ft | 16 kts | 148° |
| 2026-05-04 07:55 | 21.32527 | -157.91769 | 30 ft | 20 kts | 144° |
| 2026-05-04 07:55 | 21.32477 | -157.91730 | 28 ft | 16 kts | 142° |
| 2026-05-04 07:55 | 21.32457 | -157.91715 | 28 ft | 16 kts | 142° |
| 2026-05-04 07:56 | 21.32361 | -157.91637 | 26 ft | 17 kts | 143° |
| 2026-05-04 07:56 | 21.32276 | -157.91566 | 27 ft | 11 kts | 144° |
| 2026-05-04 07:56 | 21.32212 | -157.91516 | 28 ft | 11 kts | 142° |
| 2026-05-04 07:56 | 21.32149 | -157.91470 | 29 ft | 9 kts | 165° |
| 2026-05-04 07:57 | 21.32097 | -157.91502 | 30 ft | 9 kts | 230° |
| 2026-05-04 07:57 | 21.32050 | -157.91568 | 29 ft | 12 kts | 233° |
| 2026-05-04 07:57 | 21.31983 | -157.91638 | 29 ft | 14 kts | 216° |
| 2026-05-04 07:57 | 21.31902 | -157.91702 | 30 ft | 12 kts | 224° |
| 2026-05-04 07:58 | 21.31843 | -157.91780 | 31 ft | 14 kts | 233° |
| 2026-05-04 07:58 | 21.31781 | -157.91869 | 31 ft | 16 kts | 233° |
| 2026-05-04 07:58 | 21.31709 | -157.91971 | 31 ft | 17 kts | 233° |
| 2026-05-04 07:58 | 21.31633 | -157.92079 | 32 ft | 18 kts | 233° |
| 2026-05-04 07:59 | 21.31553 | -157.92192 | 32 ft | 19 kts | 233° |
| 2026-05-04 07:59 | 21.31470 | -157.92310 | 32 ft | 20 kts | 232° |
| 2026-05-04 07:59 | 21.31381 | -157.92435 | 31 ft | 21 kts | 233° |
| 2026-05-04 07:59 | 21.31307 | -157.92539 | 31 ft | 9 kts | 232° |
| 2026-05-04 08:00 | 21.31295 | -157.92598 | 31 ft | 8 kts | 290° |
| 2026-05-04 08:00 | 21.31315 | -157.92629 | 31 ft | 0 kts | 314° |
| 2026-05-04 08:02 | 21.32983 | -157.90465 | 110 ft | 193 kts | 53° |
| 2026-05-04 08:02 | 21.33800 | -157.89298 | 747 ft | 196 kts | 48° |
| 2026-05-04 08:02 | 21.34918 | -157.88562 | 1657 ft | 196 kts | 14° |
| 2026-05-04 08:03 | 21.36296 | -157.88675 | 2326 ft | 210 kts | 341° |
| 2026-05-04 08:03 | 21.37528 | -157.89682 | 2644 ft | 237 kts | 307° |
| 2026-05-04 08:03 | 21.38156 | -157.91382 | 2953 ft | 261 kts | 277° |
| 2026-05-04 08:03 | 21.37930 | -157.93376 | 3281 ft | 280 kts | 247° |
| 2026-05-04 08:04 | 21.36830 | -157.95094 | 3822 ft | 284 kts | 221° |
| 2026-05-04 08:04 | 21.35336 | -157.96455 | 4548 ft | 283 kts | 217° |
| 2026-05-04 08:04 | 21.33877 | -157.97890 | 5243 ft | 285 kts | 228° |
| 2026-05-04 08:04 | 21.32764 | -157.99623 | 5902 ft | 287 kts | 243° |
| 2026-05-04 08:05 | 21.32014 | -158.01613 | 6570 ft | 288 kts | 253° |
| 2026-05-04 08:05 | 21.31554 | -158.03691 | 7187 ft | 290 kts | 260° |
| 2026-05-04 08:05 | 21.31273 | -158.05847 | 7815 ft | 291 kts | 264° |
| 2026-05-04 08:05 | 21.31101 | -158.07985 | 8410 ft | 293 kts | 266° |
| 2026-05-04 08:06 | 21.30981 | -158.10175 | 8986 ft | 295 kts | 268° |
| 2026-05-04 08:06 | 21.30890 | -158.12381 | 9553 ft | 297 kts | 268° |
| 2026-05-04 08:06 | 21.30815 | -158.14574 | 10101 ft | 299 kts | 268° |
| 2026-05-04 08:06 | 21.30745 | -158.16826 | 10451 ft | 309 kts | 269° |
| 2026-05-04 08:08 | 21.30235 | -158.34605 | 13399 ft | 354 kts | 269° |
| 2026-05-04 08:08 | 21.30157 | -158.37271 | 13924 ft | 356 kts | 269° |
| 2026-05-04 08:10 | 21.29609 | -158.58936 | 17795 ft | 373 kts | 269° |
| 2026-05-04 08:11 | 21.29555 | -158.61699 | 18256 ft | 376 kts | 269° |
| 2026-05-04 08:11 | 21.29441 | -158.67322 | 19194 ft | 380 kts | 269° |
| 2026-05-04 08:11 | 21.29381 | -158.70175 | 19666 ft | 382 kts | 269° |
| 2026-05-04 08:12 | 21.29322 | -158.72992 | 20117 ft | 384 kts | 269° |
| 2026-05-04 08:12 | 21.29261 | -158.75867 | 20574 ft | 387 kts | 269° |
| 2026-05-04 08:12 | 21.29199 | -158.78754 | 21017 ft | 389 kts | 269° |
| 2026-05-04 08:12 | 21.29136 | -158.81670 | 21464 ft | 391 kts | 269° |
| 2026-05-04 08:13 | 21.29072 | -158.84586 | 21892 ft | 393 kts | 269° |
| 2026-05-04 08:13 | 21.29008 | -158.87501 | 22312 ft | 395 kts | 269° |
| 2026-05-04 08:13 | 21.28943 | -158.90440 | 22729 ft | 397 kts | 269° |
| 2026-05-04 08:13 | 21.28877 | -158.93376 | 23135 ft | 399 kts | 269° |
| 2026-05-04 08:14 | 21.28809 | -158.96358 | 23548 ft | 402 kts | 269° |
| 2026-05-04 08:14 | 21.28741 | -158.99344 | 23955 ft | 404 kts | 269° |
| 2026-05-04 08:14 | 21.28671 | -159.02380 | 24367 ft | 406 kts | 269° |
| 2026-05-04 08:16 | 21.28164 | -159.23850 | 27001 ft | 420 kts | 269° |
| 2026-05-04 08:16 | 21.28088 | -159.26988 | 27348 ft | 422 kts | 270° |
| 2026-05-04 08:16 | 21.28011 | -159.30100 | 27686 ft | 424 kts | 270° |
| 2026-05-04 08:17 | 21.27933 | -159.33256 | 28004 ft | 426 kts | 270° |
| 2026-05-04 08:17 | 21.27855 | -159.36426 | 28316 ft | 428 kts | 270° |
| 2026-05-04 08:17 | 21.27774 | -159.39615 | 28628 ft | 430 kts | 270° |
| 2026-05-04 08:17 | 21.27693 | -159.42848 | 28936 ft | 432 kts | 270° |
| 2026-05-04 08:19 | 21.27102 | -159.65576 | 30885 ft | 443 kts | 269° |
| 2026-05-04 08:19 | 21.27012 | -159.68877 | 31144 ft | 444 kts | 269° |
| 2026-05-04 08:20 | 21.26924 | -159.72170 | 31399 ft | 446 kts | 269° |
| 2026-05-04 08:20 | 21.26835 | -159.75481 | 31653 ft | 447 kts | 269° |
| 2026-05-04 08:20 | 21.26747 | -159.78799 | 31905 ft | 448 kts | 269° |
| 2026-05-04 08:20 | 21.26656 | -159.82159 | 32152 ft | 449 kts | 269° |
| 2026-05-04 08:21 | 21.26565 | -159.85495 | 32441 ft | 449 kts | 269° |
| 2026-05-04 08:21 | 21.26474 | -159.88809 | 32733 ft | 449 kts | 269° |
| 2026-05-04 08:21 | 21.26381 | -159.92127 | 33003 ft | 449 kts | 269° |
| 2026-05-04 08:21 | 21.26287 | -159.95477 | 33253 ft | 450 kts | 269° |
| 2026-05-04 08:22 | 21.26193 | -159.98830 | 33523 ft | 450 kts | 268° |
| 2026-05-04 08:22 | 21.26096 | -160.02187 | 33779 ft | 451 kts | 268° |
| 2026-05-04 08:24 | 21.25407 | -160.25687 | 34097 ft | 453 kts | 268° |
| 2026-05-04 08:24 | 21.25305 | -160.29069 | 34098 ft | 453 kts | 268° |
| 2026-05-04 08:24 | 21.25101 | -160.35791 | 34102 ft | 453 kts | 268° |
| 2026-05-04 08:25 | 21.24894 | -160.42514 | 34097 ft | 453 kts | 269° |
| 2026-05-04 08:25 | 21.24684 | -160.49246 | 34098 ft | 453 kts | 269° |
| 2026-05-04 08:27 | 21.23819 | -160.76187 | 34102 ft | 454 kts | 268° |
| 2026-05-04 08:28 | 21.23596 | -160.82915 | 34102 ft | 453 kts | 268° |
| 2026-05-04 08:28 | 21.23369 | -160.89642 | 34101 ft | 454 kts | 268° |
| 2026-05-04 08:29 | 21.23140 | -160.96372 | 34098 ft | 454 kts | 268° |
| 2026-05-04 08:31 | 21.22491 | -161.23344 | 34097 ft | 454 kts | 269° |
| 2026-05-04 08:33 | 21.21945 | -161.50308 | 34101 ft | 454 kts | 269° |
| 2026-05-04 08:35 | 21.21351 | -161.77318 | 34099 ft | 454 kts | 269° |
| 2026-05-04 08:35 | 21.21196 | -161.84039 | 34101 ft | 454 kts | 269° |
| 2026-05-04 08:37 | 21.20633 | -162.07620 | 34102 ft | 454 kts | 269° |
| 2026-05-04 08:38 | 21.20465 | -162.14400 | 34102 ft | 454 kts | 269° |
| 2026-05-04 08:38 | 21.20295 | -162.21121 | 34107 ft | 454 kts | 269° |
| 2026-05-04 08:40 | 21.19589 | -162.48102 | 34110 ft | 454 kts | 269° |
| 2026-05-04 08:41 | 21.19405 | -162.54849 | 34113 ft | 455 kts | 269° |
| 2026-05-04 08:41 | 21.19219 | -162.61597 | 34108 ft | 455 kts | 269° |
| 2026-05-04 08:42 | 21.19028 | -162.68402 | 34119 ft | 455 kts | 269° |
| 2026-05-04 08:42 | 21.18837 | -162.75125 | 34116 ft | 456 kts | 269° |
| 2026-05-04 08:43 | 21.18642 | -162.81895 | 34115 ft | 455 kts | 269° |
| 2026-05-04 08:43 | 21.18445 | -162.88663 | 34114 ft | 455 kts | 269° |
| 2026-05-04 08:44 | 21.18245 | -162.95441 | 34117 ft | 455 kts | 269° |
| 2026-05-04 08:46 | 21.17419 | -163.22476 | 34118 ft | 456 kts | 269° |
| 2026-05-04 08:46 | 21.17205 | -163.29234 | 34119 ft | 456 kts | 269° |
| 2026-05-04 08:47 | 21.16988 | -163.36012 | 34121 ft | 456 kts | 269° |
| 2026-05-04 08:47 | 21.16768 | -163.42792 | 34120 ft | 456 kts | 269° |
| 2026-05-04 08:48 | 21.16547 | -163.49559 | 34117 ft | 456 kts | 269° |
| 2026-05-04 08:48 | 21.16323 | -163.56328 | 34117 ft | 456 kts | 268° |
| 2026-05-04 08:49 | 21.16095 | -163.63101 | 34120 ft | 456 kts | 269° |
| 2026-05-04 08:50 | 21.15277 | -163.86774 | 34116 ft | 456 kts | 268° |
| 2026-05-04 08:51 | 21.15152 | -163.93581 | 34119 ft | 456 kts | 271° |
| 2026-05-04 08:51 | 21.15259 | -164.00336 | 34117 ft | 456 kts | 271° |
| 2026-05-04 08:52 | 21.15371 | -164.07082 | 34119 ft | 456 kts | 271° |
| 2026-05-04 08:52 | 21.15479 | -164.13870 | 34122 ft | 457 kts | 271° |
| 2026-05-04 08:54 | 21.15875 | -164.41023 | 34121 ft | 457 kts | 271° |
| 2026-05-04 08:55 | 21.15968 | -164.47849 | 34121 ft | 457 kts | 271° |
| 2026-05-04 08:55 | 21.16057 | -164.54601 | 34120 ft | 458 kts | 271° |
| 2026-05-04 09:01 | 21.16836 | -165.26161 | 34118 ft | 459 kts | 271° |
| 2026-05-04 09:01 | 21.16894 | -165.32967 | 34119 ft | 459 kts | 271° |
| 2026-05-04 09:02 | 21.16950 | -165.39778 | 34120 ft | 459 kts | 271° |
| 2026-05-04 09:02 | 21.17003 | -165.46591 | 34119 ft | 459 kts | 271° |
| 2026-05-04 09:03 | 21.17053 | -165.53420 | 34118 ft | 459 kts | 271° |
| 2026-05-04 09:03 | 21.17100 | -165.60219 | 34117 ft | 459 kts | 271° |
| 2026-05-04 09:04 | 21.17145 | -165.67053 | 34119 ft | 459 kts | 270° |
| 2026-05-04 09:04 | 21.17187 | -165.73865 | 34118 ft | 459 kts | 270° |
| 2026-05-04 09:05 | 21.17226 | -165.80696 | 34119 ft | 459 kts | 270° |
| 2026-05-04 09:05 | 21.17263 | -165.87517 | 34119 ft | 459 kts | 270° |
| 2026-05-04 09:06 | 21.17297 | -165.94330 | 34120 ft | 459 kts | 270° |
| 2026-05-04 09:08 | 21.17405 | -166.21568 | 34119 ft | 459 kts | 270° |
| 2026-05-04 09:08 | 21.17425 | -166.28412 | 34120 ft | 459 kts | 270° |
| 2026-05-04 09:09 | 21.17442 | -166.35233 | 34117 ft | 459 kts | 270° |
| 2026-05-04 09:09 | 21.17457 | -166.42021 | 34117 ft | 459 kts | 270° |
| 2026-05-04 09:10 | 21.17469 | -166.48843 | 34117 ft | 459 kts | 270° |
| 2026-05-04 09:10 | 21.17478 | -166.55664 | 34118 ft | 459 kts | 270° |
| 2026-05-04 09:11 | 21.17485 | -166.62501 | 34120 ft | 459 kts | 270° |
| 2026-05-04 09:11 | 21.17488 | -166.69301 | 34120 ft | 458 kts | 270° |
| 2026-05-04 09:12 | 21.17489 | -166.76083 | 34120 ft | 459 kts | 270° |
| 2026-05-04 09:14 | 21.17466 | -167.03360 | 34117 ft | 459 kts | 270° |
| 2026-05-04 09:14 | 21.17453 | -167.10150 | 34119 ft | 458 kts | 270° |
| 2026-05-04 09:15 | 21.17438 | -167.16971 | 34119 ft | 459 kts | 270° |
| 2026-05-04 09:15 | 21.17420 | -167.23796 | 34118 ft | 459 kts | 270° |
| 2026-05-04 09:17 | 21.17305 | -167.54465 | 34119 ft | 459 kts | 270° |
| 2026-05-04 09:18 | 21.17272 | -167.61287 | 34118 ft | 459 kts | 270° |
| 2026-05-04 09:18 | 21.17236 | -167.68103 | 34117 ft | 460 kts | 269° |
| 2026-05-04 09:19 | 21.17197 | -167.74910 | 34120 ft | 459 kts | 270° |
| 2026-05-04 09:19 | 21.17156 | -167.81749 | 34118 ft | 459 kts | 270° |
| 2026-05-04 09:20 | 21.17112 | -167.88545 | 34119 ft | 459 kts | 270° |
| 2026-05-04 09:20 | 21.17065 | -167.95384 | 34119 ft | 459 kts | 270° |
| 2026-05-04 09:21 | 21.17016 | -168.02194 | 34119 ft | 459 kts | 270° |
| 2026-05-04 09:21 | 21.16964 | -168.09029 | 34120 ft | 459 kts | 270° |
| 2026-05-04 09:22 | 21.16909 | -168.15848 | 34120 ft | 459 kts | 270° |
| 2026-05-04 09:22 | 21.16851 | -168.22662 | 34118 ft | 459 kts | 270° |
| 2026-05-04 09:23 | 21.16791 | -168.29469 | 34118 ft | 459 kts | 270° |
| 2026-05-04 09:23 | 21.16728 | -168.36305 | 34120 ft | 459 kts | 269° |
| 2026-05-04 09:25 | 21.16447 | -168.63586 | 34118 ft | 460 kts | 269° |
| 2026-05-04 09:26 | 21.16370 | -168.70418 | 34119 ft | 460 kts | 269° |
| 2026-05-04 09:26 | 21.16291 | -168.77254 | 34118 ft | 460 kts | 269° |
| 2026-05-04 09:27 | 21.16208 | -168.84103 | 34117 ft | 460 kts | 269° |
| 2026-05-04 09:27 | 21.16123 | -168.90916 | 34118 ft | 460 kts | 269° |
| 2026-05-04 09:28 | 21.16035 | -168.97755 | 34117 ft | 460 kts | 269° |
| 2026-05-04 09:28 | 21.15945 | -169.04555 | 34118 ft | 460 kts | 269° |
| 2026-05-04 09:29 | 21.15851 | -169.11395 | 34116 ft | 460 kts | 269° |
| 2026-05-04 09:29 | 21.15754 | -169.18214 | 34120 ft | 459 kts | 269° |
| 2026-05-04 09:30 | 21.15656 | -169.25050 | 34119 ft | 460 kts | 269° |
| 2026-05-04 09:30 | 21.15554 | -169.31877 | 34117 ft | 460 kts | 269° |
| 2026-05-04 09:31 | 21.15449 | -169.38724 | 34116 ft | 460 kts | 269° |
| 2026-05-04 09:31 | 21.15342 | -169.45538 | 34117 ft | 460 kts | 269° |
| 2026-05-04 09:32 | 21.15233 | -169.52362 | 34115 ft | 460 kts | 269° |
| 2026-05-04 09:34 | 21.14766 | -169.79671 | 34119 ft | 460 kts | 269° |
| 2026-05-04 09:34 | 21.14642 | -169.86507 | 34121 ft | 460 kts | 269° |
| 2026-05-04 09:35 | 21.14515 | -169.93362 | 34117 ft | 460 kts | 269° |
| 2026-05-04 09:35 | 21.14386 | -170.00188 | 34122 ft | 460 kts | 269° |
| 2026-05-04 09:37 | 21.13842 | -170.27531 | 34120 ft | 461 kts | 269° |
| 2026-05-04 09:38 | 21.13699 | -170.34374 | 34120 ft | 461 kts | 269° |
| 2026-05-04 09:38 | 21.13554 | -170.41176 | 34121 ft | 461 kts | 269° |
| 2026-05-04 09:39 | 21.13406 | -170.48013 | 34119 ft | 461 kts | 269° |
| 2026-05-04 09:39 | 21.13254 | -170.54878 | 34120 ft | 461 kts | 269° |
| 2026-05-04 09:40 | 21.13099 | -170.61732 | 34123 ft | 461 kts | 269° |
| 2026-05-04 09:40 | 21.12943 | -170.68562 | 34117 ft | 461 kts | 269° |
| 2026-05-04 09:42 | 21.12288 | -170.95941 | 34116 ft | 461 kts | 269° |
| 2026-05-04 09:43 | 21.12117 | -171.02805 | 34124 ft | 461 kts | 269° |
| 2026-05-04 09:43 | 21.11943 | -171.09668 | 34121 ft | 461 kts | 269° |
| 2026-05-04 09:44 | 21.11767 | -171.16487 | 34122 ft | 461 kts | 269° |
| 2026-05-04 09:46 | 21.11037 | -171.43805 | 34117 ft | 460 kts | 269° |
| 2026-05-04 09:46 | 21.10846 | -171.50671 | 34119 ft | 460 kts | 269° |
| 2026-05-04 09:47 | 21.10655 | -171.57463 | 34117 ft | 459 kts | 269° |
| 2026-05-04 09:49 | 21.09858 | -171.84717 | 34117 ft | 458 kts | 268° |
| 2026-05-04 09:51 | 21.09073 | -172.08548 | 34119 ft | 458 kts | 268° |
| 2026-05-04 09:51 | 21.08813 | -172.15338 | 34119 ft | 458 kts | 268° |
| 2026-05-04 09:52 | 21.08551 | -172.22133 | 34119 ft | 458 kts | 268° |
| 2026-05-04 09:52 | 21.08292 | -172.28796 | 34121 ft | 458 kts | 268° |
| 2026-05-04 09:53 | 21.08025 | -172.35614 | 34118 ft | 458 kts | 268° |
| 2026-05-04 09:53 | 21.07756 | -172.42401 | 34118 ft | 458 kts | 268° |
| 2026-05-04 09:54 | 21.07486 | -172.49167 | 34115 ft | 458 kts | 268° |
| 2026-05-04 09:54 | 21.07210 | -172.55998 | 34114 ft | 458 kts | 268° |
| 2026-05-04 09:55 | 21.06932 | -172.62802 | 34116 ft | 458 kts | 268° |
| 2026-05-04 09:55 | 21.06652 | -172.69600 | 34118 ft | 458 kts | 268° |
| 2026-05-04 09:56 | 21.06369 | -172.76399 | 34120 ft | 458 kts | 268° |
| 2026-05-04 09:56 | 21.06084 | -172.83188 | 34118 ft | 458 kts | 268° |
| 2026-05-04 09:57 | 21.05797 | -172.89957 | 34117 ft | 458 kts | 268° |
| 2026-05-04 09:57 | 21.05506 | -172.96774 | 34115 ft | 458 kts | 268° |
| 2026-05-04 09:58 | 21.05212 | -173.03584 | 34117 ft | 458 kts | 268° |
| 2026-05-04 09:58 | 21.04917 | -173.10352 | 34117 ft | 458 kts | 268° |
| 2026-05-04 10:00 | 21.03707 | -173.37500 | 34118 ft | 458 kts | 268° |
| 2026-05-04 10:04 | 21.01484 | -173.85011 | 34116 ft | 457 kts | 267° |
| 2026-05-04 10:04 | 21.01159 | -173.91744 | 34116 ft | 457 kts | 267° |
| 2026-05-04 10:05 | 21.00828 | -173.98523 | 34115 ft | 457 kts | 267° |
| 2026-05-04 10:05 | 21.00494 | -174.05313 | 34118 ft | 457 kts | 267° |
| 2026-05-04 10:06 | 21.00157 | -174.12109 | 34116 ft | 457 kts | 267° |
| 2026-05-04 10:06 | 20.99821 | -174.18846 | 34116 ft | 457 kts | 267° |
| 2026-05-04 10:08 | 20.98617 | -174.42513 | 34114 ft | 456 kts | 267° |
| 2026-05-04 10:08 | 20.98266 | -174.49298 | 34117 ft | 456 kts | 267° |
| 2026-05-04 10:09 | 20.97915 | -174.56033 | 34118 ft | 456 kts | 267° |
| 2026-05-04 10:09 | 20.97560 | -174.62797 | 34115 ft | 456 kts | 267° |
| 2026-05-04 10:10 | 20.97202 | -174.69534 | 34117 ft | 456 kts | 266° |
| 2026-05-04 10:10 | 20.96841 | -174.76308 | 34116 ft | 456 kts | 266° |
| 2026-05-04 10:11 | 20.96480 | -174.83032 | 34112 ft | 456 kts | 266° |
| 2026-05-04 10:11 | 20.96115 | -174.89771 | 34115 ft | 456 kts | 266° |
| 2026-05-04 10:12 | 20.95746 | -174.96542 | 34114 ft | 455 kts | 266° |
| 2026-05-04 10:12 | 20.95375 | -175.03297 | 34116 ft | 455 kts | 266° |
| 2026-05-04 10:13 | 20.95003 | -175.10019 | 34116 ft | 455 kts | 266° |
| 2026-05-04 10:13 | 20.94628 | -175.16757 | 34116 ft | 455 kts | 266° |
| 2026-05-04 10:14 | 20.94251 | -175.23480 | 34115 ft | 455 kts | 266° |
| 2026-05-04 10:16 | 20.92710 | -175.50464 | 34116 ft | 455 kts | 266° |
| 2026-05-04 10:16 | 20.92318 | -175.57217 | 34114 ft | 456 kts | 266° |
| 2026-05-04 10:17 | 20.91923 | -175.63968 | 34115 ft | 456 kts | 266° |
| 2026-05-04 10:19 | 20.90320 | -175.90921 | 34115 ft | 456 kts | 266° |
| 2026-05-04 10:19 | 20.89910 | -175.97707 | 34116 ft | 456 kts | 266° |
| 2026-05-04 10:20 | 20.89501 | -176.04428 | 34115 ft | 456 kts | 266° |
| 2026-05-04 10:20 | 20.89085 | -176.11212 | 34115 ft | 457 kts | 266° |
| 2026-05-04 10:21 | 20.88669 | -176.17964 | 34115 ft | 457 kts | 266° |
| 2026-05-04 10:21 | 20.88251 | -176.24715 | 34115 ft | 457 kts | 266° |
| 2026-05-04 10:22 | 20.87615 | -176.34874 | 34115 ft | 457 kts | 266° |
| 2026-05-04 10:23 | 20.87191 | -176.41599 | 34115 ft | 457 kts | 266° |
| 2026-05-04 10:25 | 20.85458 | -176.68663 | 34116 ft | 458 kts | 265° |
| 2026-05-04 10:25 | 20.85016 | -176.75467 | 34115 ft | 458 kts | 265° |
| 2026-05-04 10:26 | 20.84574 | -176.82228 | 34115 ft | 458 kts | 265° |
| 2026-05-04 10:26 | 20.84128 | -176.89000 | 34116 ft | 458 kts | 265° |
| 2026-05-04 10:27 | 20.83678 | -176.95792 | 34115 ft | 458 kts | 265° |
| 2026-05-04 10:27 | 20.83229 | -177.02534 | 34113 ft | 459 kts | 265° |
| 2026-05-04 10:28 | 20.82775 | -177.09315 | 34115 ft | 459 kts | 265° |
| 2026-05-04 10:28 | 20.82315 | -177.16148 | 34112 ft | 459 kts | 265° |
| 2026-05-04 10:29 | 20.81854 | -177.22939 | 34112 ft | 459 kts | 265° |
| 2026-05-04 10:29 | 20.81393 | -177.29697 | 34113 ft | 460 kts | 265° |
| 2026-05-04 10:30 | 20.80926 | -177.36502 | 34113 ft | 460 kts | 265° |
| 2026-05-04 10:30 | 20.80455 | -177.43335 | 34114 ft | 460 kts | 265° |
| 2026-05-04 10:31 | 20.79985 | -177.50108 | 34111 ft | 461 kts | 265° |
| 2026-05-04 10:32 | 20.78308 | -177.73959 | 34114 ft | 462 kts | 265° |
| 2026-05-04 10:33 | 20.77821 | -177.80800 | 34114 ft | 461 kts | 265° |
| 2026-05-04 10:33 | 20.77333 | -177.87616 | 34115 ft | 462 kts | 265° |
| 2026-05-04 10:34 | 20.76843 | -177.94431 | 34113 ft | 463 kts | 265° |
| 2026-05-04 10:34 | 20.76349 | -178.01251 | 34114 ft | 462 kts | 265° |
| 2026-05-04 10:35 | 20.75851 | -178.08096 | 34115 ft | 463 kts | 265° |
| 2026-05-04 10:35 | 20.75350 | -178.14935 | 34116 ft | 463 kts | 265° |
| 2026-05-04 10:36 | 20.74848 | -178.21747 | 34115 ft | 463 kts | 265° |
| 2026-05-04 10:36 | 20.74341 | -178.28609 | 34117 ft | 463 kts | 265° |
| 2026-05-04 10:37 | 20.73831 | -178.35472 | 34113 ft | 463 kts | 265° |
| 2026-05-04 10:37 | 20.73321 | -178.42281 | 34112 ft | 463 kts | 265° |
| 2026-05-04 10:39 | 20.71505 | -178.66278 | 34115 ft | 464 kts | 265° |
| 2026-05-04 10:40 | 20.70982 | -178.73105 | 34115 ft | 464 kts | 265° |
| 2026-05-04 10:40 | 20.70452 | -178.79982 | 34115 ft | 464 kts | 265° |
| 2026-05-04 10:41 | 20.69921 | -178.86848 | 34114 ft | 465 kts | 265° |
| 2026-05-04 10:41 | 20.69388 | -178.93703 | 34116 ft | 465 kts | 265° |
| 2026-05-04 10:42 | 20.68852 | -179.00540 | 34113 ft | 465 kts | 265° |
| 2026-05-04 10:42 | 20.68314 | -179.07394 | 34115 ft | 465 kts | 265° |
| 2026-05-04 10:43 | 20.67769 | -179.14294 | 34114 ft | 465 kts | 265° |
| 2026-05-04 10:45 | 20.65569 | -179.41780 | 34115 ft | 466 kts | 265° |
| 2026-05-04 10:45 | 20.65015 | -179.48619 | 34116 ft | 466 kts | 265° |
| 2026-05-04 10:46 | 20.64453 | -179.55525 | 34113 ft | 467 kts | 264° |
| 2026-05-04 10:46 | 20.63888 | -179.62418 | 34113 ft | 467 kts | 264° |
| 2026-05-04 10:47 | 20.63325 | -179.69263 | 34111 ft | 467 kts | 264° |
| 2026-05-04 10:47 | 20.62754 | -179.76170 | 34114 ft | 467 kts | 264° |
| 2026-05-04 10:49 | 20.60428 | 179.96220 | 34115 ft | 468 kts | 264° |
| 2026-05-04 10:50 | 20.59806 | 179.89339 | 34114 ft | 468 kts | 264° |
| 2026-05-04 10:52 | 20.57282 | 179.61781 | 34113 ft | 468 kts | 264° |
| 2026-05-04 10:52 | 20.56641 | 179.54858 | 34113 ft | 469 kts | 264° |
| 2026-05-04 10:54 | 20.54061 | 179.27271 | 34113 ft | 469 kts | 264° |
| 2026-05-04 10:56 | 20.51454 | 178.99870 | 34113 ft | 463 kts | 264° |
| 2026-05-04 10:57 | 20.50796 | 178.93028 | 34112 ft | 463 kts | 264° |
| 2026-05-04 10:57 | 20.50141 | 178.86240 | 34115 ft | 463 kts | 264° |
| 2026-05-04 10:58 | 20.49479 | 178.79423 | 34114 ft | 463 kts | 264° |
| 2026-05-04 10:58 | 20.48819 | 178.72643 | 34112 ft | 463 kts | 264° |
| 2026-05-04 10:59 | 20.48154 | 178.65840 | 34116 ft | 463 kts | 264° |
| 2026-05-04 10:59 | 20.47486 | 178.59021 | 34114 ft | 463 kts | 264° |
| 2026-05-04 11:00 | 20.46813 | 178.52188 | 34116 ft | 463 kts | 264° |
| 2026-05-04 11:02 | 20.44105 | 178.24979 | 34112 ft | 463 kts | 264° |
| 2026-05-04 11:05 | 20.38910 | 177.73947 | 34115 ft | 463 kts | 264° |
| 2026-05-04 11:06 | 20.38209 | 177.67183 | 34115 ft | 463 kts | 264° |
| 2026-05-04 11:06 | 20.37503 | 177.60381 | 34114 ft | 463 kts | 264° |
| 2026-05-04 11:10 | 20.32488 | 177.12839 | 34112 ft | 463 kts | 264° |
| 2026-05-04 11:12 | 20.29566 | 176.85702 | 34113 ft | 462 kts | 264° |
| 2026-05-04 11:12 | 20.28826 | 176.78886 | 34116 ft | 462 kts | 264° |
| 2026-05-04 11:13 | 20.28091 | 176.72151 | 34112 ft | 462 kts | 264° |
| 2026-05-04 11:13 | 20.27347 | 176.65340 | 34116 ft | 462 kts | 264° |
| 2026-05-04 11:16 | 20.23572 | 176.31226 | 34116 ft | 461 kts | 264° |
| 2026-05-04 11:16 | 20.22815 | 176.24451 | 34117 ft | 461 kts | 264° |
| 2026-05-04 11:17 | 20.22051 | 176.17641 | 34114 ft | 461 kts | 264° |
| 2026-05-04 11:19 | 20.18983 | 175.90538 | 34112 ft | 460 kts | 264° |
| 2026-05-04 11:19 | 20.18214 | 175.83798 | 34119 ft | 460 kts | 264° |
| 2026-05-04 11:20 | 20.17436 | 175.77011 | 34126 ft | 460 kts | 264° |
| 2026-05-04 11:20 | 20.16658 | 175.70245 | 34117 ft | 460 kts | 264° |
| 2026-05-04 11:22 | 20.13529 | 175.43262 | 34121 ft | 460 kts | 264° |
| 2026-05-04 11:23 | 20.12742 | 175.36528 | 34116 ft | 460 kts | 264° |
| 2026-05-04 11:25 | 20.09960 | 175.12918 | 34119 ft | 460 kts | 264° |
| 2026-05-04 11:25 | 20.09163 | 175.06198 | 34119 ft | 460 kts | 264° |
| 2026-05-04 11:27 | 20.05536 | 174.75923 | 34106 ft | 460 kts | 264° |
| 2026-05-04 11:28 | 20.04721 | 174.69168 | 34103 ft | 461 kts | 264° |
| 2026-05-04 11:28 | 20.03905 | 174.62444 | 34099 ft | 461 kts | 263° |
| 2026-05-04 11:29 | 20.03084 | 174.55698 | 34096 ft | 461 kts | 263° |
| 2026-05-04 11:29 | 20.02260 | 174.48944 | 34094 ft | 461 kts | 263° |
| 2026-05-04 11:33 | 19.96418 | 174.01682 | 34076 ft | 461 kts | 263° |
| 2026-05-04 11:33 | 19.95574 | 173.94945 | 34072 ft | 461 kts | 263° |
| 2026-05-04 11:34 | 19.94729 | 173.88219 | 34073 ft | 461 kts | 263° |
| 2026-05-04 11:34 | 19.93205 | 173.76137 | 34073 ft | 460 kts | 263° |
| 2026-05-04 11:35 | 19.91511 | 173.62788 | 34073 ft | 460 kts | 263° |
| 2026-05-04 11:35 | 19.89809 | 173.49461 | 34074 ft | 459 kts | 263° |
| 2026-05-04 11:36 | 19.88080 | 173.36026 | 34077 ft | 458 kts | 263° |
| 2026-05-04 11:36 | 19.86327 | 173.22740 | 34073 ft | 457 kts | 263° |
| 2026-05-04 11:37 | 19.84516 | 173.09407 | 34072 ft | 457 kts | 263° |
| 2026-05-04 11:37 | 19.82705 | 172.96135 | 34072 ft | 456 kts | 263° |
| 2026-05-04 11:38 | 19.80913 | 172.83075 | 34077 ft | 456 kts | 263° |
| 2026-05-04 11:38 | 19.79081 | 172.69801 | 34078 ft | 456 kts | 262° |
| 2026-05-04 11:39 | 19.77237 | 172.56511 | 34082 ft | 455 kts | 262° |
| 2026-05-04 11:41 | 19.70743 | 172.10290 | 34083 ft | 454 kts | 262° |
| 2026-05-04 11:41 | 19.69329 | 172.00339 | 34083 ft | 454 kts | 262° |
| 2026-05-04 11:42 | 19.68382 | 171.93695 | 34087 ft | 454 kts | 262° |
| 2026-05-04 11:42 | 19.67436 | 171.87082 | 34088 ft | 454 kts | 262° |
| 2026-05-04 11:43 | 19.66486 | 171.80458 | 34089 ft | 454 kts | 262° |
| 2026-05-04 11:43 | 19.65321 | 171.72353 | 34088 ft | 454 kts | 262° |
| 2026-05-04 11:44 | 19.63607 | 171.60484 | 34089 ft | 454 kts | 262° |
| 2026-05-04 11:44 | 19.62648 | 171.53868 | 34085 ft | 453 kts | 262° |
| 2026-05-04 11:45 | 19.61566 | 171.46420 | 34088 ft | 453 kts | 262° |
| 2026-05-04 11:45 | 19.59655 | 171.33321 | 34088 ft | 452 kts | 262° |
| 2026-05-04 11:46 | 19.57735 | 171.20222 | 34084 ft | 453 kts | 262° |
| 2026-05-04 11:46 | 19.55799 | 171.07095 | 34083 ft | 452 kts | 262° |
| 2026-05-04 11:47 | 19.53858 | 170.93994 | 34079 ft | 451 kts | 262° |
| 2026-05-04 11:47 | 19.51957 | 170.81229 | 34082 ft | 451 kts | 262° |
| 2026-05-04 11:48 | 19.50012 | 170.68231 | 34081 ft | 451 kts | 262° |
| 2026-05-04 11:48 | 19.48085 | 170.55420 | 34086 ft | 450 kts | 262° |
| 2026-05-04 11:49 | 19.46110 | 170.42355 | 34079 ft | 450 kts | 262° |
| 2026-05-04 11:49 | 19.44128 | 170.29303 | 34083 ft | 450 kts | 262° |
| 2026-05-04 11:50 | 19.42131 | 170.16226 | 34080 ft | 450 kts | 262° |
| 2026-05-04 11:50 | 19.40122 | 170.03133 | 34082 ft | 450 kts | 262° |
| 2026-05-04 11:51 | 19.38120 | 169.90143 | 34084 ft | 450 kts | 262° |
| 2026-05-04 11:51 | 19.36106 | 169.77136 | 34080 ft | 449 kts | 262° |
| 2026-05-04 11:52 | 19.34077 | 169.64108 | 34085 ft | 449 kts | 262° |
| 2026-05-04 11:52 | 19.32050 | 169.51144 | 34081 ft | 448 kts | 262° |
| 2026-05-04 11:53 | 19.29999 | 169.38100 | 34077 ft | 448 kts | 262° |
| 2026-05-04 11:53 | 19.27959 | 169.25176 | 34081 ft | 449 kts | 262° |
| 2026-05-04 11:55 | 19.19690 | 168.73419 | 34073 ft | 447 kts | 262° |
| 2026-05-04 11:56 | 19.17663 | 168.60881 | 34077 ft | 447 kts | 262° |
| 2026-05-04 11:56 | 19.15749 | 168.49085 | 34075 ft | 448 kts | 262° |
| 2026-05-04 11:57 | 19.13814 | 168.37212 | 34072 ft | 448 kts | 262° |
| 2026-05-04 11:57 | 19.13299 | 168.34061 | 34075 ft | 447 kts | 262° |
| 2026-05-04 11:58 | 19.13013 | 168.32315 | 34078 ft | 447 kts | 262° |
| 2026-05-04 11:59 | 19.12373 | 168.28407 | 34077 ft | 447 kts | 261° |